Time;durP1;ratioP1;P1;durP2;ratioP2;P2;SDS_P1;SDS_P2;PMS_P1;PMS_P2;Temp;Humidity;BMP_temperature;BMP_pressure;BME280_temperature;BME280_humidity;BME280_pressure;Samples;Min_cycle;Max_cycle;Signal;HPM_P1;HPM_P2
2021/05/30 00:02:16;;;;;;;;;7.50;6.25;;;;;17.66;46.59;102160.63;5034437;28;46158;-75
2021/05/30 00:04:41;;;;;;;;;8.00;6.50;;;;;17.60;46.57;102149.44;5035256;28;45586;-75
2021/05/30 00:07:09;;;;;;;;;7.00;7.00;;;;;17.58;47.04;102151.31;5034454;28;45586;-75
2021/05/30 00:09:38;;;;;;;;;8.25;7.25;;;;;17.53;46.69;102146.22;5034601;28;45406;-75
2021/05/30 00:12:04;;;;;;;;;6.75;6.50;;;;;17.31;47.04;102111.88;5033254;28;46926;-75
2021/05/30 00:14:29;;;;;;;;;5.50;5.50;;;;;17.46;47.10;102144.81;5034179;28;45998;-75
2021/05/30 00:16:54;;;;;;;;;7.00;7.00;;;;;17.36;47.27;102138.22;5035911;28;45422;-74
2021/05/30 00:19:19;;;;;;;;;9.00;7.75;;;;;17.37;47.56;102139.94;5035105;28;48168;-75
2021/05/30 00:21:45;;;;;;;;;7.25;7.25;;;;;17.31;47.69;102141.09;5035174;28;46048;-75
2021/05/30 00:24:11;;;;;;;;;8.25;8.00;;;;;17.28;47.59;102141.28;5033965;28;45513;-75
2021/05/30 00:26:37;;;;;;;;;7.50;7.50;;;;;17.25;47.40;102143.19;5034933;28;45377;-75
2021/05/30 00:29:03;;;;;;;;;12.25;7.50;;;;;17.22;47.82;102149.50;5035220;28;45464;-75
2021/05/30 00:31:28;;;;;;;;;7.25;7.00;;;;;17.14;47.72;102133.09;5034445;28;45633;-75
2021/05/30 00:33:53;;;;;;;;;8.50;8.50;;;;;17.10;48.18;102135.03;5034693;28;45672;-75
2021/05/30 00:36:19;;;;;;;;;7.00;7.00;;;;;17.09;48.23;102137.78;5033258;28;45653;-75
2021/05/30 00:38:44;;;;;;;;;8.00;8.00;;;;;17.06;48.18;102143.22;5032536;28;45566;-75
2021/05/30 00:41:09;;;;;;;;;7.25;7.25;;;;;17.03;48.47;102144.25;5033120;28;52358;-75
2021/05/30 00:43:48;;;;;;;;;10.50;9.25;;;;;17.01;48.46;102138.13;5034026;28;45577;-75
2021/05/30 00:46:14;;;;;;;;;10.75;8.75;;;;;16.98;48.92;102151.56;5033273;28;45562;-75
2021/05/30 00:48:39;;;;;;;;;7.50;7.50;;;;;16.92;48.91;102142.09;5032579;28;45479;-75
2021/05/30 00:51:05;;;;;;;;;8.25;8.25;;;;;16.91;48.67;102135.06;5034194;28;45915;-75
2021/05/30 00:53:32;;;;;;;;;8.50;7.50;;;;;16.87;49.04;102135.28;5034195;28;45426;-75
2021/05/30 00:55:57;;;;;;;;;9.50;8.00;;;;;16.85;48.99;102140.63;5034347;28;45656;-75
2021/05/30 00:58:24;;;;;;;;;9.00;7.50;;;;;16.81;49.55;102139.09;5036196;28;45363;-75
2021/05/30 01:00:49;;;;;;;;;8.75;7.25;;;;;16.73;49.69;102133.25;5031634;28;45871;-75
2021/05/30 01:03:14;;;;;;;;;10.00;10.00;;;;;16.65;49.92;102125.63;5033724;28;45811;-75
2021/05/30 01:05:40;;;;;;;;;8.00;8.00;;;;;16.60;49.78;102126.75;5033633;28;45631;-75
2021/05/30 01:08:05;;;;;;;;;8.75;7.50;;;;;16.64;50.41;102141.59;5033702;28;45560;-75
2021/05/30 01:10:34;;;;;;;;;9.50;9.50;;;;;16.58;49.99;102140.09;5034367;28;47101;-75
2021/05/30 01:13:01;;;;;;;;;9.00;9.00;;;;;16.56;50.37;102144.63;5032270;28;45269;-75
2021/05/30 01:15:29;;;;;;;;;10.75;7.75;;;;;16.54;50.66;102142.94;5032216;28;45557;-75
2021/05/30 01:17:55;;;;;;;;;8.25;7.75;;;;;16.51;50.70;102141.31;5032972;28;45560;-75
2021/05/30 01:20:21;;;;;;;;;8.00;8.00;;;;;16.34;50.28;102115.56;5033676;28;46173;-75
2021/05/30 01:22:47;;;;;;;;;10.25;8.00;;;;;16.42;50.29;102136.41;5035363;28;45486;-75
2021/05/30 01:25:15;;;;;;;;;11.25;8.50;;;;;16.36;50.89;102129.59;5032107;28;45459;-75
2021/05/30 01:27:41;;;;;;;;;11.25;9.25;;;;;16.32;51.05;102132.47;5032289;28;45457;-75
2021/05/30 01:30:08;;;;;;;;;9.00;9.00;;;;;16.27;51.29;102127.34;5031890;28;46104;-73
2021/05/30 01:32:33;;;;;;;;;11.50;10.00;;;;;16.24;51.52;102132.81;5030473;28;46376;-73
2021/05/30 01:35:00;;;;;;;;;8.50;8.00;;;;;16.18;51.86;102128.63;5033754;28;50026;-75
2021/05/30 01:37:25;;;;;;;;;10.00;10.00;;;;;16.19;51.48;102129.50;5033351;28;45610;-75
2021/05/30 01:39:50;;;;;;;;;10.50;9.00;;;;;16.15;50.88;102119.94;5032904;28;46200;-75
2021/05/30 01:42:16;;;;;;;;;12.00;8.75;;;;;16.10;51.93;102127.25;5032964;28;45537;-74
2021/05/30 01:44:41;;;;;;;;;7.25;7.25;;;;;16.08;51.90;102118.50;5032096;28;45761;-75
2021/05/30 01:47:06;;;;;;;;;10.25;9.75;;;;;15.96;51.90;102108.41;5031307;28;45461;-75
2021/05/30 01:49:32;;;;;;;;;9.00;9.00;;;;;16.00;52.48;102118.81;5034957;28;45319;-75
2021/05/30 01:51:57;;;;;;;;;9.00;9.00;;;;;16.00;52.36;102117.97;5032841;28;45716;-74
2021/05/30 01:54:25;;;;;;;;;9.25;8.25;;;;;15.93;52.77;102114.72;5032917;28;45482;-74
2021/05/30 01:56:57;;;;;;;;;9.00;9.00;;;;;15.88;52.76;102109.63;5033086;28;45726;-74
2021/05/30 01:59:27;;;;;;;;;10.25;9.75;;;;;15.91;52.48;102120.06;5032624;28;46188;-75
2021/05/30 02:02:00;;;;;;;;;11.75;10.25;;;;;15.84;52.67;102115.97;5033570;28;45359;-75
2021/05/30 02:04:39;;;;;;;;;7.00;7.00;;;;;15.84;52.99;102121.28;5033181;28;45489;-75
2021/05/30 02:07:07;;;;;;;;;13.75;9.75;;;;;15.77;53.09;102124.28;5030952;28;45462;-75
2021/05/30 02:09:35;;;;;;;;;11.75;8.75;;;;;15.66;53.14;102108.81;5032569;28;45485;-74
2021/05/30 02:12:01;;;;;;;;;11.75;11.75;;;;;15.75;53.22;102132.25;5032657;28;45330;-74
2021/05/30 02:14:27;;;;;;;;;10.75;9.25;;;;;15.72;53.17;102134.22;5032696;28;45547;-75
2021/05/30 02:16:53;;;;;;;;;11.75;11.75;;;;;15.66;53.39;102122.06;5034178;28;45664;-75
2021/05/30 02:19:18;;;;;;;;;11.25;10.25;;;;;15.60;52.92;102117.84;5032604;28;46262;-74
2021/05/30 02:21:46;;;;;;;;;13.75;9.00;;;;;15.65;53.62;102136.22;5031713;28;45513;-75
2021/05/30 02:24:13;;;;;;;;;9.50;9.00;;;;;15.63;53.88;102130.16;5032776;28;45525;-75
2021/05/30 02:26:39;;;;;;;;;12.50;9.75;;;;;15.59;53.58;102134.66;5029833;28;45514;-74
2021/05/30 02:29:05;;;;;;;;;12.25;8.75;;;;;15.57;53.82;102133.88;5032472;28;45488;-75
2021/05/30 02:31:31;;;;;;;;;11.00;9.00;;;;;15.52;53.70;102133.22;5034507;28;45733;-75
2021/05/30 02:33:56;;;;;;;;;10.50;8.50;;;;;15.47;53.84;102131.69;5032549;28;45514;-75
2021/05/30 02:36:22;;;;;;;;;14.25;13.00;;;;;15.43;54.04;102130.94;5031469;28;45372;-75
2021/05/30 02:38:48;;;;;;;;;13.00;13.00;;;;;15.45;54.24;102136.16;5032960;28;45435;-75
2021/05/30 02:41:13;;;;;;;;;12.50;12.50;;;;;15.43;54.34;102135.38;5031993;28;45415;-75
2021/05/30 02:43:39;;;;;;;;;8.00;7.75;;;;;15.43;54.40;102130.06;5034800;28;45377;-75
2021/05/30 02:46:05;;;;;;;;;10.50;10.25;;;;;15.39;54.42;102122.22;5031491;28;45395;-75
2021/05/30 02:48:30;;;;;;;;;11.00;11.00;;;;;15.42;53.98;102131.00;5031353;28;45505;-75
2021/05/30 02:51:01;;;;;;;;;9.00;8.25;;;;;15.40;54.30;102131.06;5031633;28;45365;-75
2021/05/30 02:53:28;;;;;;;;;12.75;10.25;;;;;15.38;53.83;102133.75;5031978;28;45509;-74
2021/05/30 02:55:55;;;;;;;;;12.50;11.00;;;;;15.37;54.63;102136.47;5032356;28;45465;-74
2021/05/30 02:58:20;;;;;;;;;11.00;10.00;;;;;15.34;54.73;102133.94;5033837;28;46077;-75
2021/05/30 03:00:47;;;;;;;;;12.75;12.25;;;;;15.26;54.66;102128.13;5031666;28;45513;-75
2021/05/30 03:03:12;;;;;;;;;10.25;8.50;;;;;15.32;54.71;102138.47;5033275;28;45423;-75
2021/05/30 03:05:38;;;;;;;;;13.75;10.50;;;;;15.25;54.61;102129.03;5030102;28;45338;-74
2021/05/30 03:08:04;;;;;;;;;9.00;9.00;;;;;15.27;54.93;102137.78;5033071;28;45457;-75
2021/05/30 03:10:29;;;;;;;;;10.00;10.00;;;;;15.25;54.47;102137.84;5034238;28;45379;-76
2021/05/30 03:12:54;;;;;;;;;9.00;8.00;;;;;15.23;54.71;102139.69;5032055;28;45477;-75
2021/05/30 03:15:20;;;;;;;;;15.25;12.50;;;;;15.16;54.90;102135.56;5030903;28;45650;-75
2021/05/30 03:17:45;;;;;;;;;10.50;10.50;;;;;15.21;54.96;102138.88;5031506;28;45483;-75
2021/05/30 03:20:11;;;;;;;;;13.75;11.75;;;;;15.20;55.26;102146.91;5031812;28;47584;-75
2021/05/30 03:22:36;;;;;;;;;12.00;8.75;;;;;15.18;54.98;102146.94;5029821;28;45633;-75
2021/05/30 03:25:03;;;;;;;;;11.00;11.00;;;;;15.15;55.21;102149.72;5029586;28;45560;-75
2021/05/30 03:27:28;;;;;;;;;12.75;12.25;;;;;15.13;55.60;102151.56;5030487;28;46274;-75
2021/05/30 03:29:56;;;;;;;;;11.75;10.00;;;;;15.08;55.49;102145.56;5030682;28;48301;-75
2021/05/30 03:32:21;;;;;;;;;11.00;8.75;;;;;15.08;55.68;102148.22;5030603;28;45587;-75
2021/05/30 03:34:47;;;;;;;;;16.00;13.75;;;;;15.05;55.51;102148.38;5032467;28;45569;-74
2021/05/30 03:37:12;;;;;;;;;11.75;10.75;;;;;15.05;55.97;102153.66;5032786;28;61442;-75
2021/05/30 03:39:41;;;;;;;;;14.25;11.75;;;;;15.03;56.00;102147.53;5031331;28;45377;-75
2021/05/30 03:42:08;;;;;;;;;10.50;9.25;;;;;15.01;55.68;102144.97;5032053;28;45519;-74
2021/05/30 03:44:34;;;;;;;;;11.25;11.25;;;;;14.98;55.42;102150.41;5030284;28;45437;-75
2021/05/30 03:46:59;;;;;;;;;11.25;10.25;;;;;14.94;55.86;102146.13;5031329;28;46177;-75
2021/05/30 03:49:25;;;;;;;;;9.75;9.75;;;;;14.89;56.04;102140.16;5033029;28;59351;-74
2021/05/30 03:51:50;;;;;;;;;12.75;11.75;;;;;14.93;55.99;102147.06;5031402;28;45465;-74
2021/05/30 03:54:16;;;;;;;;;11.00;10.25;;;;;14.92;56.03;102147.97;5032664;28;51687;-74
2021/05/30 03:56:42;;;;;;;;;11.50;10.00;;;;;14.92;56.20;102144.47;5034475;28;53441;-75
2021/05/30 03:59:07;;;;;;;;;12.75;12.50;;;;;14.89;56.65;102148.09;5033696;28;45471;-75
2021/05/30 04:01:32;;;;;;;;;12.75;10.50;;;;;14.89;56.11;102145.44;5036019;28;45421;-75
2021/05/30 04:03:58;;;;;;;;;15.25;13.00;;;;;14.90;56.20;102151.59;5034606;28;45521;-75
2021/05/30 04:06:23;;;;;;;;;12.50;12.50;;;;;14.75;56.34;102123.94;5034585;28;46270;-74
2021/05/30 04:08:48;;;;;;;;;13.50;11.75;;;;;14.82;56.85;102136.88;5033996;28;45481;-76
2021/05/30 04:11:15;;;;;;;;;13.00;13.00;;;;;14.89;56.27;102148.09;5035204;28;45348;-74
2021/05/30 04:13:40;;;;;;;;;13.50;11.25;;;;;14.87;56.81;102152.56;5045040;28;45641;-75
2021/05/30 04:16:06;;;;;;;;;9.75;9.75;;;;;14.87;56.74;102142.84;5034225;28;52542;-74
2021/05/30 04:18:31;;;;;;;;;14.75;13.00;;;;;14.94;57.08;102156.72;5034606;28;45714;-75
2021/05/30 04:20:57;;;;;;;;;18.75;15.50;;;;;14.97;56.62;102147.78;5034132;28;57309;-74
2021/05/30 04:23:22;;;;;;;;;11.75;11.75;;;;;14.95;56.75;102141.69;5033030;28;45620;-74
2021/05/30 04:25:47;;;;;;;;;12.50;11.50;;;;;14.97;56.81;102151.28;5035300;28;47141;-74
2021/05/30 04:28:13;;;;;;;;;14.25;11.25;;;;;14.94;56.99;102147.94;5034549;28;49987;-74
2021/05/30 04:30:38;;;;;;;;;11.50;11.00;;;;;14.99;56.65;102164.50;5034558;28;45426;-74
2021/05/30 04:33:04;;;;;;;;;12.75;12.75;;;;;14.97;56.79;102146.00;5033654;28;45381;-74
2021/05/30 04:35:29;;;;;;;;;15.75;13.75;;;;;15.00;56.78;102145.91;5033256;28;46086;-74
2021/05/30 04:37:55;;;;;;;;;13.00;13.00;;;;;14.94;57.02;102143.50;5033194;28;45426;-74
2021/05/30 04:40:24;;;;;;;;;14.00;14.00;;;;;15.00;56.77;102148.53;5035513;28;45378;-74
2021/05/30 04:42:49;;;;;;;;;11.00;11.00;;;;;15.02;56.92;102149.34;5034339;28;45795;-74
2021/05/30 04:45:15;;;;;;;;;12.50;10.50;;;;;14.98;56.81;102139.81;5032643;28;45996;-75
2021/05/30 04:47:41;;;;;;;;;16.00;11.75;;;;;15.03;57.21;102145.75;5034029;28;45299;-75
2021/05/30 04:50:06;;;;;;;;;13.00;12.75;;;;;15.07;56.91;102143.84;5031751;28;47813;-74
2021/05/30 04:52:32;;;;;;;;;12.50;11.75;;;;;15.10;57.09;102149.06;5035147;28;45547;-74
2021/05/30 04:54:57;;;;;;;;;15.75;14.00;;;;;15.13;57.38;102152.41;5031266;28;55825;-75
2021/05/30 04:57:22;;;;;;;;;14.25;12.75;;;;;15.17;57.32;102145.22;5033796;28;45441;-75
2021/05/30 04:59:48;;;;;;;;;14.00;14.00;;;;;15.22;57.06;102153.00;5032355;28;45614;-75
2021/05/30 05:02:13;;;;;;;;;12.25;11.75;;;;;15.06;57.13;102127.13;5033343;28;51982;-75
2021/05/30 05:04:38;;;;;;;;;13.50;13.00;;;;;15.28;57.38;102148.31;5035996;28;46088;-75
2021/05/30 05:07:04;;;;;;;;;14.50;12.75;;;;;15.33;57.12;102154.28;5032971;28;45774;-75
2021/05/30 05:09:29;;;;;;;;;13.50;13.50;;;;;15.35;57.46;102154.25;5033576;28;45721;-75
2021/05/30 05:11:54;;;;;;;;;12.75;10.25;;;;;15.41;57.41;102161.94;5034296;28;45452;-75
2021/05/30 05:14:20;;;;;;;;;16.75;14.00;;;;;15.46;57.19;102162.59;5033026;28;46094;-75
2021/05/30 05:16:45;;;;;;;;;14.75;14.00;;;;;15.50;57.09;102163.31;5035259;28;45474;-75
2021/05/30 05:19:10;;;;;;;;;13.50;13.00;;;;;15.55;57.13;102154.25;5033919;28;45474;-75
2021/05/30 05:21:36;;;;;;;;;18.25;15.00;;;;;15.62;57.43;102149.59;5033253;28;45481;-75
2021/05/30 05:24:01;;;;;;;;;13.75;13.00;;;;;15.71;57.00;102145.72;5033704;28;45513;-75
2021/05/30 05:26:26;;;;;;;;;16.00;14.75;;;;;15.77;57.11;102151.63;5033277;28;45484;-75
2021/05/30 05:28:53;;;;;;;;;15.00;13.25;;;;;15.82;56.65;102154.97;5035288;28;45986;-75
2021/05/30 05:31:18;;;;;;;;;16.00;16.00;;;;;15.85;56.79;102149.50;5034276;28;45428;-75
2021/05/30 05:33:44;;;;;;;;;19.75;15.75;;;;;15.93;56.74;102151.84;5032583;28;45380;-75
2021/05/30 05:36:09;;;;;;;;;16.50;14.75;;;;;16.01;56.26;102155.00;5032061;28;45701;-75
2021/05/30 05:38:35;;;;;;;;;14.50;12.75;;;;;16.15;56.34;102149.97;5032214;28;45608;-75
2021/05/30 05:41:01;;;;;;;;;15.50;14.25;;;;;16.26;56.42;102138.91;5033922;28;45487;-75
2021/05/30 05:43:26;;;;;;;;;17.50;14.50;;;;;16.54;56.05;102148.25;5035114;28;45319;-75
2021/05/30 05:45:51;;;;;;;;;16.25;14.50;;;;;16.88;55.63;102155.59;5031399;28;45441;-74
2021/05/30 05:48:17;;;;;;;;;14.75;14.00;;;;;17.16;55.06;102155.13;5031880;28;45430;-75
2021/05/30 05:50:44;;;;;;;;;14.25;11.25;;;;;17.48;54.58;102149.09;5032689;28;45512;-75
2021/05/30 05:53:10;;;;;;;;;17.25;14.00;;;;;17.82;54.38;102149.25;5032775;28;49127;-75
2021/05/30 05:55:35;;;;;;;;;13.75;13.00;;;;;18.15;53.21;102150.16;5034801;28;45395;-75
2021/05/30 05:58:01;;;;;;;;;14.25;13.50;;;;;18.32;52.91;102143.09;5032800;28;45460;-75
2021/05/30 06:00:27;;;;;;;;;14.75;14.25;;;;;18.44;52.51;102153.09;5033106;28;45336;-75
2021/05/30 06:02:52;;;;;;;;;10.75;10.25;;;;;18.41;52.29;102148.78;5032356;28;45819;-75
2021/05/30 06:05:22;;;;;;;;;13.00;12.50;;;;;18.42;52.01;102145.19;5031426;28;45738;-75
2021/05/30 06:07:49;;;;;;;;;12.25;10.00;;;;;18.47;51.82;102144.94;5034074;28;45464;-75
2021/05/30 06:10:17;;;;;;;;;18.50;17.00;;;;;18.47;51.85;102142.28;5031922;28;45501;-75
2021/05/30 06:12:43;;;;;;;;;17.75;16.50;;;;;18.35;51.72;102140.28;5031869;28;46013;-75
2021/05/30 06:15:09;;;;;;;;;14.50;12.50;;;;;18.24;51.32;102139.03;5029495;28;51593;-75
2021/05/30 06:17:35;;;;;;;;;13.00;11.00;;;;;18.19;51.45;102146.41;5033156;28;45820;-74
2021/05/30 06:20:00;;;;;;;;;15.75;13.25;;;;;18.17;51.68;102147.44;5032824;28;45414;-74
2021/05/30 06:22:27;;;;;;;;;13.75;13.25;;;;;18.16;51.03;102149.22;5031510;28;45457;-75
2021/05/30 06:24:53;;;;;;;;;14.00;12.50;;;;;18.21;51.63;102151.63;5032562;28;45459;-75
2021/05/30 06:27:18;;;;;;;;;15.75;13.00;;;;;18.21;50.99;102156.97;5032409;28;45510;-74
2021/05/30 06:29:43;;;;;;;;;12.00;12.00;;;;;18.20;51.02;102150.78;5031598;28;45473;-75
2021/05/30 06:32:08;;;;;;;;;13.25;10.00;;;;;18.21;50.92;102162.28;5030817;28;59582;-74
2021/05/30 06:34:34;;;;;;;;;13.75;11.75;;;;;18.20;50.97;102156.09;5033267;28;57013;-74
2021/05/30 06:36:59;;;;;;;;;14.00;13.00;;;;;18.20;50.95;102158.78;5032910;28;45978;-74
2021/05/30 06:39:24;;;;;;;;;10.75;10.75;;;;;18.25;51.37;102159.38;5032359;28;45620;-75
2021/05/30 06:41:54;;;;;;;;;15.50;13.75;;;;;18.31;51.06;102166.19;5032501;28;46242;-75
2021/05/30 06:44:19;;;;;;;;;15.25;12.00;;;;;18.40;51.11;102163.03;5032542;28;45717;-75
2021/05/30 06:46:45;;;;;;;;;16.00;13.50;;;;;18.46;50.89;102157.38;5034171;28;45632;-75
2021/05/30 06:49:11;;;;;;;;;13.50;12.50;;;;;18.58;50.66;102165.66;5032201;28;45319;-75
2021/05/30 06:51:36;;;;;;;;;12.75;11.50;;;;;18.64;50.17;102165.34;5032788;28;46232;-74
2021/05/30 06:54:04;;;;;;;;;16.00;15.00;;;;;18.64;50.40;102152.03;5031944;28;45375;-74
2021/05/30 06:56:29;;;;;;;;;15.00;12.00;;;;;18.71;50.95;102164.09;5030344;28;46036;-75
2021/05/30 06:58:55;;;;;;;;;13.50;12.75;;;;;18.85;49.92;102161.53;5033235;28;45549;-75
2021/05/30 07:01:21;;;;;;;;;13.50;11.00;;;;;18.98;50.70;102157.25;5030906;28;46349;-74
2021/05/30 07:03:48;;;;;;;;;13.00;12.00;;;;;19.14;50.38;102165.22;5029852;28;45843;-75
2021/05/30 07:06:14;;;;;;;;;14.00;12.00;;;;;19.30;49.71;102159.91;5032312;28;45514;-75
2021/05/30 07:08:39;;;;;;;;;18.75;14.00;;;;;19.50;49.82;102164.94;5032450;28;45588;-74
2021/05/30 07:11:05;;;;;;;;;14.25;12.00;;;;;19.62;48.97;102166.06;5032217;28;45706;-74
2021/05/30 07:13:31;;;;;;;;;15.50;11.50;;;;;19.91;49.33;102167.03;5033699;28;45455;-74
2021/05/30 07:15:56;;;;;;;;;15.00;12.50;;;;;20.49;48.50;102160.00;5030515;28;46609;-75
2021/05/30 07:18:22;;;;;;;;;14.75;12.25;;;;;20.85;47.26;102156.81;5031001;28;61202;-74
2021/05/30 07:20:49;;;;;;;;;19.75;15.50;;;;;20.83;46.88;102158.75;5032149;28;45965;-74
2021/05/30 07:23:15;;;;;;;;;17.25;12.00;;;;;20.86;47.44;102163.88;5021565;28;45860;-75
2021/05/30 07:25:41;;;;;;;;;16.75;15.75;;;;;20.88;47.27;102163.78;5034649;28;45508;-75
2021/05/30 07:28:07;;;;;;;;;17.00;16.50;;;;;21.24;46.89;102163.22;5032738;28;45286;-75
2021/05/30 07:30:33;;;;;;;;;14.25;12.25;;;;;21.76;46.34;102162.47;5034764;28;45577;-75
2021/05/30 07:32:58;;;;;;;;;15.00;15.00;;;;;22.58;45.42;102162.13;5035114;28;45640;-73
2021/05/30 07:35:24;;;;;;;;;13.75;12.25;;;;;22.80;44.96;102160.59;5035054;28;45604;-75
2021/05/30 07:37:49;;;;;;;;;16.25;12.75;;;;;22.84;43.88;102144.16;5035162;28;45416;-75
2021/05/30 07:40:15;;;;;;;;;11.25;11.25;;;;;23.06;43.63;102154.22;5034575;28;48166;-75
2021/05/30 07:42:40;;;;;;;;;11.25;10.25;;;;;23.31;43.56;102155.94;5034371;28;45441;-75
2021/05/30 07:45:06;;;;;;;;;12.50;12.50;;;;;24.35;42.57;102157.88;5033720;28;45893;-75
2021/05/30 07:47:32;;;;;;;;;11.00;10.25;;;;;26.02;41.70;102136.97;5035118;28;45491;-75
2021/05/30 07:49:57;;;;;;;;;14.75;11.00;;;;;27.26;38.89;102144.84;5035168;28;46792;-75
2021/05/30 07:52:23;;;;;;;;;13.50;12.00;;;;;28.05;37.88;102140.13;5034970;28;54900;-74
2021/05/30 07:54:48;;;;;;;;;13.00;10.50;;;;;29.50;37.49;102129.56;5034347;28;45339;-75
2021/05/30 07:57:13;;;;;;;;;10.00;10.00;;;;;31.03;34.72;102138.78;5034500;28;45272;-75
2021/05/30 07:59:39;;;;;;;;;10.75;10.75;;;;;32.12;34.32;102126.78;5034856;28;45501;-75
2021/05/30 08:02:04;;;;;;;;;11.25;11.25;;;;;33.56;32.58;102129.97;5032550;28;46168;-76
2021/05/30 08:04:29;;;;;;;;;9.00;9.00;;;;;34.71;29.82;102132.31;5035895;28;45451;-76
2021/05/30 08:06:55;;;;;;;;;10.50;10.50;;;;;35.98;29.64;102122.47;5033898;28;53694;-74
2021/05/30 08:09:20;;;;;;;;;11.75;10.75;;;;;36.06;28.01;102125.03;5034579;28;46189;-74
2021/05/30 08:11:46;;;;;;;;;9.75;9.75;;;;;35.43;27.10;102139.63;5034099;28;45387;-77
2021/05/30 08:14:11;;;;;;;;;9.50;9.50;;;;;34.60;26.87;102147.31;5033281;28;45580;-75
2021/05/30 08:16:39;;;;;;;;;9.25;8.50;;;;;34.09;27.82;102133.59;5035245;28;45774;-73
2021/05/30 08:19:05;;;;;;;;;10.25;10.25;;;;;35.06;27.16;102140.75;5032520;28;45560;-74
2021/05/30 08:21:30;;;;;;;;;12.50;10.50;;;;;36.82;25.72;102138.69;5034812;28;45390;-75
2021/05/30 08:23:56;;;;;;;;;11.00;10.00;;;;;38.30;24.10;102135.84;5034595;28;45478;-76
2021/05/30 08:26:23;;;;;;;;;8.00;8.00;;;;;39.94;23.95;102140.56;5031581;28;45382;-75
2021/05/30 08:28:49;;;;;;;;;9.50;8.00;;;;;41.32;22.38;102141.78;5035500;28;47148;-83
2021/05/30 08:31:14;;;;;;;;;11.75;8.75;;;;;42.16;21.62;102134.13;5028865;28;45442;-74
2021/05/30 08:33:39;;;;;;;;;9.00;9.00;;;;;41.90;21.05;102141.00;5033875;28;46227;-74
2021/05/30 08:36:05;;;;;;;;;11.50;9.50;;;;;40.36;21.61;102147.09;5033138;28;49682;-75
2021/05/30 08:38:30;;;;;;;;;8.00;8.00;;;;;40.34;22.10;102135.44;5031905;28;45919;-76
2021/05/30 08:40:57;;;;;;;;;9.50;9.00;;;;;41.62;20.86;102136.19;5034552;28;45564;-76
2021/05/30 08:43:22;;;;;;;;;10.00;10.00;;;;;43.45;20.29;102133.66;5034622;28;45340;-76
2021/05/30 08:45:50;;;;;;;;;7.25;7.25;;;;;44.96;18.77;102137.88;5032935;28;45535;-76
2021/05/30 08:48:15;;;;;;;;;10.00;8.75;;;;;45.69;18.09;102127.97;5033795;28;47307;-77
2021/05/30 08:50:41;;;;;;;;;8.75;8.50;;;;;47.02;17.72;102134.06;5034015;28;45355;-75
2021/05/30 08:53:06;;;;;;;;;10.25;7.75;;;;;47.85;16.82;102134.56;5036055;28;45423;-78
2021/05/30 08:55:32;;;;;;;;;9.50;8.75;;;;;48.96;15.72;102130.69;5034960;28;45696;-77
2021/05/30 08:57:58;;;;;;;;;8.25;8.25;;;;;49.12;15.74;102133.06;5031670;28;45545;-76
2021/05/30 09:00:30;;;;;;;;;9.00;8.50;;;;;49.11;15.73;102133.38;5034921;28;45770;-73
2021/05/30 09:03:09;;;;;;;;;7.75;7.50;;;;;50.01;14.35;102127.13;5033306;28;45581;-77
2021/05/30 09:05:38;;;;;;;;;11.75;8.75;;;;;50.56;14.04;102127.56;5032964;28;45556;-75
2021/05/30 09:08:04;;;;;;;;;9.25;7.75;;;;;50.82;13.65;102121.59;5031706;28;46409;-77
2021/05/30 09:10:29;;;;;;;;;12.00;9.00;;;;;51.39;13.55;102131.53;5032593;28;45528;-75
2021/05/30 09:13:15;;;;;;;;;9.25;9.25;;;;;52.10;13.18;102134.06;5032296;28;45503;-77
2021/05/30 09:15:54;;;;;;;;;8.00;7.25;;;;;52.62;12.63;102123.38;5028306;28;45607;-77
2021/05/30 09:18:30;;;;;;;;;5.75;5.25;;;;;52.71;11.75;102131.88;5032860;28;46984;-76
2021/05/30 09:20:59;;;;;;;;;8.75;7.00;;;;;52.67;11.96;102131.66;5030906;28;45564;-77
2021/05/30 09:23:34;;;;;;;;;7.50;7.25;;;;;52.80;11.85;102133.59;5033679;28;45569;-74
2021/05/30 09:26:22;;;;;;;;;8.25;7.75;;;;;52.47;11.75;102129.31;5032061;28;45397;-77
2021/05/30 09:29:06;;;;;;;;;7.50;6.75;;;;;51.80;11.46;102124.31;5030498;28;45430;-78
2021/05/30 09:31:33;;;;;;;;;6.50;6.50;;;;;50.13;11.92;102132.34;5032824;28;45497;-78
2021/05/30 09:33:58;;;;;;;;;9.75;6.75;;;;;48.25;12.94;102132.78;5032692;28;45479;-72
2021/05/30 09:36:23;;;;;;;;;7.75;7.25;;;;;46.89;13.38;102121.56;5032865;28;50716;-79
2021/05/30 09:39:03;;;;;;;;;7.25;6.75;;;;;45.64;14.19;102119.59;5031930;28;45474;-75
2021/05/30 09:41:28;;;;;;;;;9.00;7.75;;;;;44.59;13.99;102110.03;5033071;28;45670;-74
2021/05/30 09:43:54;;;;;;;;;9.50;7.75;;;;;43.20;14.92;102109.97;5038825;28;45296;-75
2021/05/30 09:46:21;;;;;;;;;7.00;6.25;;;;;41.98;16.33;102110.28;5034248;28;45516;-75
2021/05/30 09:48:49;;;;;;;;;7.75;7.75;;;;;41.19;16.69;102098.66;5031619;28;46264;-75
2021/05/30 09:51:25;;;;;;;;;8.00;7.25;;;;;40.53;17.42;102103.25;5022153;28;45600;-78
2021/05/30 09:54:11;;;;;;;;;9.00;9.00;;;;;39.98;17.37;102107.88;5031119;28;45382;-75
2021/05/30 09:56:42;;;;;;;;;7.75;7.00;;;;;39.39;18.04;102099.97;5031235;28;45584;-75
2021/05/30 09:59:10;;;;;;;;;8.75;6.75;;;;;39.00;18.45;102098.34;5033154;28;45394;-75
2021/05/30 10:01:49;;;;;;;;;9.75;8.50;;;;;38.57;18.61;102087.97;5026344;28;45670;-76
2021/05/30 10:04:15;;;;;;;;;6.25;5.50;;;;;38.00;18.50;102088.81;5026528;28;45455;-76
2021/05/30 10:06:42;;;;;;;;;8.25;8.25;;;;;37.49;18.81;102079.38;5024842;28;45452;-76
2021/05/30 10:09:08;;;;;;;;;5.25;5.25;;;;;36.79;18.80;102083.47;5031617;28;45637;-76
2021/05/30 10:11:34;;;;;;;;;5.75;5.75;;;;;36.26;19.23;102081.34;5030398;28;45524;-76
2021/05/30 10:14:00;;;;;;;;;9.00;8.75;;;;;35.78;19.76;102086.72;5031267;28;45489;-75
2021/05/30 10:16:26;;;;;;;;;7.25;7.25;;;;;35.30;20.32;102070.16;5029136;28;45489;-76
2021/05/30 10:18:53;;;;;;;;;10.75;10.75;;;;;35.07;20.49;102076.84;5032431;28;45430;-76
2021/05/30 10:21:20;;;;;;;;;7.50;7.00;;;;;34.61;20.59;102085.34;5028549;28;45624;-76
2021/05/30 10:23:50;;;;;;;;;8.25;8.25;;;;;34.28;20.83;102063.94;5032723;28;45486;-76
2021/05/30 10:26:21;;;;;;;;;13.25;13.25;;;;;34.08;20.90;102069.13;5031776;28;45445;-75
2021/05/30 10:29:02;;;;;;;;;9.25;7.75;;;;;33.71;20.18;102079.03;5031050;28;45458;-78
2021/05/30 10:31:33;;;;;;;;;11.50;10.00;;;;;33.38;21.04;102078.47;5032203;28;45646;-76
2021/05/30 10:34:10;;;;;;;;;7.25;6.50;;;;;33.07;21.61;102077.72;5032262;28;45414;-79
2021/05/30 10:36:36;;;;;;;;;6.50;6.50;;;;;32.78;21.37;102073.78;5031888;28;45528;-77
2021/05/30 10:39:01;;;;;;;;;6.00;5.00;;;;;32.55;21.91;102075.63;5029261;28;45477;-75
2021/05/30 10:41:27;;;;;;;;;5.00;5.00;;;;;32.24;21.44;102078.28;5030453;28;45557;-80
2021/05/30 10:43:52;;;;;;;;;5.00;3.50;;;;;31.76;22.01;102061.06;5033954;28;45384;-77
2021/05/30 10:46:18;;;;;;;;;7.00;6.50;;;;;31.47;22.13;102083.34;5033294;28;45496;-75
2021/05/30 10:49:05;;;;;;;;;7.75;6.00;;;;;31.20;22.74;102066.34;5032530;28;46314;-75
2021/05/30 10:51:45;;;;;;;;;2.75;2.75;;;;;30.82;22.26;102068.66;5029107;28;45623;-75
2021/05/30 10:54:12;;;;;;;;;9.00;8.00;;;;;30.57;23.26;102067.72;5022792;28;45469;-75
2021/05/30 10:56:59;;;;;;;;;14.75;13.25;;;;;30.31;23.30;102070.50;5030570;28;45567;-75
2021/05/30 10:59:26;;;;;;;;;6.00;6.00;;;;;29.98;23.66;102050.50;5018016;28;46178;-75
2021/05/30 11:01:52;;;;;;;;;27.50;23.50;;;;;29.79;23.65;102062.41;5033829;28;45863;-75
2021/05/30 11:04:28;;;;;;;;;19.25;18.75;;;;;29.69;23.94;102060.81;5036625;28;45494;-75
2021/05/30 11:07:28;;;;;;;;;17.00;15.75;;;;;29.64;24.42;102064.00;5035416;28;45366;-75
2021/05/30 11:09:55;;;;;;;;;8.75;8.00;;;;;29.62;24.74;102049.75;5032650;28;46119;-74
2021/05/30 11:12:27;;;;;;;;;6.50;5.00;;;;;29.69;24.33;102047.25;5034205;28;45616;-75
2021/05/30 11:15:07;;;;;;;;;14.00;13.50;;;;;29.72;24.35;102050.50;5036101;28;45544;-71
2021/05/30 11:17:39;;;;;;;;;7.25;7.25;;;;;29.76;24.77;102042.94;5034716;28;45773;-76